Kearsarge, Michigan
Current Conditions -  °F | °C
As of 8:29 AM on Sunday 23 Nov 2014 (Local Time) from KCMX Reporting Station
Haze Haze  
Wind Chill: 32°   Ceiling: 500
Heat Index: 37°   Visibility: 3mi
Dew Point: 36°   Wind: 6mph
Humidity: 96%   Direction: 150°SSE
Pressure: 29.49"   Gusts: NA
Location:  47.27°N, 88.42°W
Report Text: KCMX 231329Z AUTO 15005KT 3SM BR OVC005 03/02 A2949 RMK AO2 T00280022
Loading
Personal Weather Stations






























Interactive Weather Map New forecast layout! Learn more

10-Day Weather Forecast

Advertisements
Track Severe Weather on mobile